Time;durP1;ratioP1;P1;durP2;ratioP2;P2;SDS_P1;SDS_P2;PMS_P1;PMS_P2;Temp;Humidity;BMP_temperature;BMP_pressure;BME280_temperature;BME280_humidity;BME280_pressure;Samples;Min_cycle;Max_cycle;Signal;HPM_P1;HPM_P2
2024/01/12 00:02:13;;;;;;;37.77;22.33;;;;;;;;;;5094401;28;20478;-59
2024/01/12 00:04:39;;;;;;;43.60;23.10;;;;;;;;;;5092862;28;20467;-59
2024/01/12 00:07:07;;;;;;;49.80;23.97;;;;;;;;;;5092564;28;20498;-61
2024/01/12 00:09:33;;;;;;;40.10;22.80;;;;;;;;;;5094690;28;20558;-60
2024/01/12 00:11:59;;;;;;;39.07;22.07;;;;;;;;;;5100007;28;20446;-60
2024/01/12 00:14:26;;;;;;;41.20;22.03;;;;;;;;;;5092210;28;20505;-61
2024/01/12 00:16:52;;;;;;;48.20;23.80;;;;;;;;;;5094782;28;20483;-60
2024/01/12 00:19:20;;;;;;;41.87;22.33;;;;;;;;;;5096346;28;21194;-60
2024/01/12 00:21:46;;;;;;;46.07;22.87;;;;;;;;;;5095124;28;20443;-60
2024/01/12 00:24:14;;;;;;;52.77;23.13;;;;;;;;;;5096771;28;20889;-60
2024/01/12 00:26:41;;;;;;;44.23;22.00;;;;;;;;;;5093973;28;20470;-59
2024/01/12 00:29:07;;;;;;;43.93;23.33;;;;;;;;;;5095086;28;20482;-59
2024/01/12 00:31:34;;;;;;;41.50;21.43;;;;;;;;;;5092509;28;20545;-59
2024/01/12 00:34:00;;;;;;;45.37;23.57;;;;;;;;;;5090858;28;20458;-59
2024/01/12 00:36:26;;;;;;;40.87;22.37;;;;;;;;;;5085858;28;20486;-59
2024/01/12 00:38:53;;;;;;;48.43;24.07;;;;;;;;;;5094326;28;20550;-59
2024/01/12 00:41:22;;;;;;;46.67;24.10;;;;;;;;;;5095909;28;20483;-60
2024/01/12 00:43:49;;;;;;;49.00;23.97;;;;;;;;;;5087134;28;20470;-59
2024/01/12 00:46:15;;;;;;;46.17;22.70;;;;;;;;;;5097010;28;20518;-59
2024/01/12 00:48:43;;;;;;;40.03;21.40;;;;;;;;;;5097990;28;20494;-61
2024/01/12 00:51:10;;;;;;;44.07;23.90;;;;;;;;;;5094678;28;20487;-61
2024/01/12 00:53:37;;;;;;;42.10;23.37;;;;;;;;;;5091619;28;20909;-60
2024/01/12 00:56:03;;;;;;;41.33;23.73;;;;;;;;;;5087585;28;20957;-59
2024/01/12 00:58:31;;;;;;;46.77;22.77;;;;;;;;;;5093102;28;20476;-59
2024/01/12 01:00:58;;;;;;;38.60;20.93;;;;;;;;;;5085890;28;20472;-59
2024/01/12 01:03:24;;;;;;;47.73;23.87;;;;;;;;;;5092699;28;20527;-59
2024/01/12 01:05:50;;;;;;;41.07;21.90;;;;;;;;;;5093145;28;20566;-64
2024/01/12 01:08:17;;;;;;;38.63;21.37;;;;;;;;;;5095425;28;20554;-64
2024/01/12 01:10:43;;;;;;;36.10;21.30;;;;;;;;;;5095168;28;21064;-63
2024/01/12 01:13:10;;;;;;;39.40;20.50;;;;;;;;;;5093697;28;20459;-65
2024/01/12 01:15:37;;;;;;;46.13;23.50;;;;;;;;;;5090386;28;20963;-65
2024/01/12 01:18:04;;;;;;;43.43;22.33;;;;;;;;;;5094969;28;20493;-64
2024/01/12 01:20:31;;;;;;;42.30;22.13;;;;;;;;;;5090330;28;20479;-63
2024/01/12 01:22:57;;;;;;;45.50;22.90;;;;;;;;;;5092041;28;20448;-62
2024/01/12 01:25:24;;;;;;;42.03;22.50;;;;;;;;;;5090709;28;20443;-65
2024/01/12 01:27:50;;;;;;;41.03;23.60;;;;;;;;;;5096037;28;20499;-63
2024/01/12 01:30:16;;;;;;;42.90;22.77;;;;;;;;;;5094650;28;21066;-65
2024/01/12 01:32:44;;;;;;;42.77;22.57;;;;;;;;;;5093281;28;20885;-64
2024/01/12 01:35:11;;;;;;;49.10;23.00;;;;;;;;;;5094301;28;20509;-61
2024/01/12 01:37:37;;;;;;;50.07;23.20;;;;;;;;;;5096156;28;20506;-63
2024/01/12 01:40:06;;;;;;;47.80;23.20;;;;;;;;;;5097894;28;20520;-65
2024/01/12 01:42:32;;;;;;;45.07;23.00;;;;;;;;;;5097681;28;20455;-63
2024/01/12 01:44:59;;;;;;;61.73;25.83;;;;;;;;;;5089117;28;20535;-63
2024/01/12 01:47:26;;;;;;;40.50;23.70;;;;;;;;;;5085897;28;20487;-62
2024/01/12 01:49:54;;;;;;;48.83;24.80;;;;;;;;;;5092850;28;20515;-65
2024/01/12 01:52:20;;;;;;;49.77;23.93;;;;;;;;;;5095692;28;20475;-63
2024/01/12 01:54:47;;;;;;;58.23;26.67;;;;;;;;;;5093460;28;20543;-65
2024/01/12 01:57:14;;;;;;;50.73;24.10;;;;;;;;;;5085003;28;20483;-65
2024/01/12 01:59:41;;;;;;;59.23;26.10;;;;;;;;;;5096631;28;20554;-64
2024/01/12 02:02:08;;;;;;;54.90;23.90;;;;;;;;;;5094604;28;20495;-64
2024/01/12 02:04:34;;;;;;;52.80;24.00;;;;;;;;;;5094554;28;20455;-63
2024/01/12 02:07:02;;;;;;;56.63;25.47;;;;;;;;;;5098351;28;21047;-64
2024/01/12 02:09:31;;;;;;;57.27;25.90;;;;;;;;;;5095734;28;20504;-64
2024/01/12 02:11:57;;;;;;;54.60;27.03;;;;;;;;;;5094747;28;20450;-64
2024/01/12 02:14:24;;;;;;;59.30;24.93;;;;;;;;;;5097207;28;20455;-64
2024/01/12 02:16:52;;;;;;;65.30;26.50;;;;;;;;;;5092664;28;21420;-64
2024/01/12 02:19:18;;;;;;;57.80;25.47;;;;;;;;;;5088698;28;20490;-64
2024/01/12 02:21:46;;;;;;;56.43;27.20;;;;;;;;;;5097041;28;20529;-64
2024/01/12 02:24:12;;;;;;;65.27;27.17;;;;;;;;;;5094040;28;20519;-64
2024/01/12 02:26:39;;;;;;;58.67;26.30;;;;;;;;;;5089523;28;20490;-65
2024/01/12 02:29:05;;;;;;;62.73;25.60;;;;;;;;;;5097684;28;20522;-65
2024/01/12 02:31:32;;;;;;;57.13;24.33;;;;;;;;;;5096068;28;20540;-63
2024/01/12 02:33:58;;;;;;;53.23;24.23;;;;;;;;;;5089943;28;20531;-62
2024/01/12 02:36:26;;;;;;;58.73;23.83;;;;;;;;;;5097536;28;20588;-62
2024/01/12 02:38:55;;;;;;;46.40;23.30;;;;;;;;;;5095304;28;20886;-65
2024/01/12 02:41:21;;;;;;;53.60;24.07;;;;;;;;;;5089651;28;20523;-61
2024/01/12 02:43:48;;;;;;;52.83;22.53;;;;;;;;;;5087349;28;20472;-63
2024/01/12 02:46:14;;;;;;;53.47;23.90;;;;;;;;;;5096767;28;20497;-63
2024/01/12 02:48:41;;;;;;;53.07;22.93;;;;;;;;;;5094456;28;20538;-62
2024/01/12 02:51:07;;;;;;;50.67;24.20;;;;;;;;;;5093812;28;20475;-64
2024/01/12 02:53:34;;;;;;;49.50;21.63;;;;;;;;;;5088289;28;20467;-64
2024/01/12 02:56:01;;;;;;;47.10;22.07;;;;;;;;;;5089849;28;20511;-65
2024/01/12 02:58:28;;;;;;;41.03;20.53;;;;;;;;;;5097186;28;20489;-63
2024/01/12 03:00:54;;;;;;;52.60;22.43;;;;;;;;;;5097347;28;20515;-65
2024/01/12 03:03:21;;;;;;;41.13;18.40;;;;;;;;;;5097046;28;20479;-65
2024/01/12 03:05:48;;;;;;;35.83;17.03;;;;;;;;;;5092620;28;20786;-65
2024/01/12 03:08:14;;;;;;;31.20;15.97;;;;;;;;;;5094558;28;20459;-61
2024/01/12 03:10:41;;;;;;;35.70;18.77;;;;;;;;;;5097480;28;20518;-63
2024/01/12 03:13:09;;;;;;;39.53;18.57;;;;;;;;;;5090324;28;20530;-63
2024/01/12 03:15:35;;;;;;;36.93;16.60;;;;;;;;;;5088837;28;20467;-61
2024/01/12 03:18:01;;;;;;;39.43;17.40;;;;;;;;;;5095985;28;20547;-62
2024/01/12 03:20:28;;;;;;;37.37;17.37;;;;;;;;;;5096390;28;20483;-64
2024/01/12 03:22:54;;;;;;;34.87;18.03;;;;;;;;;;5096695;28;20521;-63
2024/01/12 03:25:20;;;;;;;39.70;17.83;;;;;;;;;;5094974;28;20479;-63
2024/01/12 03:27:47;;;;;;;37.97;18.70;;;;;;;;;;5095189;28;20885;-65
2024/01/12 03:30:15;;;;;;;37.63;19.67;;;;;;;;;;5090247;28;20522;-64
2024/01/12 03:32:42;;;;;;;39.27;19.17;;;;;;;;;;5091047;28;20467;-62
2024/01/12 03:35:09;;;;;;;49.43;20.73;;;;;;;;;;5095326;28;20521;-64
2024/01/12 03:37:35;;;;;;;38.73;18.13;;;;;;;;;;5096138;28;21012;-65
2024/01/12 03:40:01;;;;;;;43.77;19.80;;;;;;;;;;5091330;28;20484;-62
2024/01/12 03:42:28;;;;;;;39.00;18.07;;;;;;;;;;5097703;28;20956;-63
2024/01/12 03:44:54;;;;;;;35.60;17.63;;;;;;;;;;5095967;28;22798;-63
2024/01/12 03:47:22;;;;;;;47.47;18.70;;;;;;;;;;5098901;28;20527;-62
2024/01/12 03:49:48;;;;;;;36.07;18.03;;;;;;;;;;5098536;28;20910;-65
2024/01/12 03:52:14;;;;;;;33.83;17.47;;;;;;;;;;5098344;28;20996;-64
2024/01/12 03:54:41;;;;;;;42.27;18.57;;;;;;;;;;5094424;28;20487;-65
2024/01/12 03:57:07;;;;;;;37.47;17.90;;;;;;;;;;5096492;28;20477;-63
2024/01/12 03:59:34;;;;;;;39.57;16.23;;;;;;;;;;5093886;28;20952;-62
2024/01/12 04:02:00;;;;;;;32.70;15.33;;;;;;;;;;5092699;28;20547;-62
2024/01/12 04:04:28;;;;;;;34.40;14.93;;;;;;;;;;5097100;28;21140;-63
2024/01/12 04:06:54;;;;;;;32.40;13.60;;;;;;;;;;5092110;28;20479;-62
2024/01/12 04:09:20;;;;;;;29.93;13.63;;;;;;;;;;5095202;28;21303;-64
2024/01/12 04:11:47;;;;;;;33.80;14.13;;;;;;;;;;5097007;28;20507;-65
2024/01/12 04:14:13;;;;;;;30.07;14.50;;;;;;;;;;5099548;28;20450;-62
2024/01/12 04:16:40;;;;;;;37.63;13.77;;;;;;;;;;5099858;28;20570;-64
2024/01/12 04:19:06;;;;;;;31.60;14.47;;;;;;;;;;5097867;28;20906;-62
2024/01/12 04:21:34;;;;;;;28.17;14.47;;;;;;;;;;5100008;28;20543;-62
2024/01/12 04:24:01;;;;;;;28.13;13.80;;;;;;;;;;5099051;28;20523;-64
2024/01/12 04:26:27;;;;;;;30.40;13.90;;;;;;;;;;5094908;28;20446;-64
2024/01/12 04:28:54;;;;;;;30.53;14.10;;;;;;;;;;5092232;28;21508;-65
2024/01/12 04:31:20;;;;;;;35.10;14.80;;;;;;;;;;5096380;28;20482;-64
2024/01/12 04:33:46;;;;;;;30.50;14.70;;;;;;;;;;5089217;28;20539;-64
2024/01/12 04:36:13;;;;;;;35.13;16.00;;;;;;;;;;5092855;28;20554;-63
2024/01/12 04:38:40;;;;;;;35.30;15.53;;;;;;;;;;5096800;28;20545;-65
2024/01/12 04:41:07;;;;;;;34.17;14.87;;;;;;;;;;5093133;28;21266;-64
2024/01/12 04:43:33;;;;;;;37.50;14.67;;;;;;;;;;5094126;28;20481;-63
2024/01/12 04:46:00;;;;;;;34.97;14.63;;;;;;;;;;5088683;28;20493;-64
2024/01/12 04:48:26;;;;;;;38.60;15.93;;;;;;;;;;5091483;28;21191;-64
2024/01/12 04:50:52;;;;;;;28.17;14.50;;;;;;;;;;5092634;28;20514;-63
2024/01/12 04:53:19;;;;;;;28.70;15.10;;;;;;;;;;5088844;28;20531;-64
2024/01/12 04:55:46;;;;;;;34.30;15.27;;;;;;;;;;5090321;28;20828;-65
2024/01/12 04:58:13;;;;;;;35.50;16.23;;;;;;;;;;5091632;28;20486;-64
2024/01/12 05:00:39;;;;;;;43.17;17.43;;;;;;;;;;5091460;28;20495;-64
2024/01/12 05:03:06;;;;;;;42.07;15.47;;;;;;;;;;5097420;28;20518;-63
2024/01/12 05:05:32;;;;;;;41.60;14.97;;;;;;;;;;5096530;28;20496;-64
2024/01/12 05:07:58;;;;;;;30.83;15.30;;;;;;;;;;5095588;28;20459;-64
2024/01/12 05:10:25;;;;;;;36.93;17.40;;;;;;;;;;5098836;28;20479;-65
2024/01/12 05:12:52;;;;;;;38.20;15.33;;;;;;;;;;5095791;28;20470;-64
2024/01/12 05:15:19;;;;;;;30.80;15.97;;;;;;;;;;5094124;28;20538;-65
2024/01/12 05:17:45;;;;;;;26.13;14.03;;;;;;;;;;5095416;28;20474;-63
2024/01/12 05:20:12;;;;;;;33.10;15.53;;;;;;;;;;5097655;28;20471;-64
2024/01/12 05:22:38;;;;;;;24.53;13.40;;;;;;;;;;5096278;28;20513;-64
2024/01/12 05:25:05;;;;;;;31.43;14.63;;;;;;;;;;5081141;28;20476;-64
2024/01/12 05:27:32;;;;;;;29.47;14.23;;;;;;;;;;5095739;28;21025;-62
2024/01/12 05:29:59;;;;;;;25.10;13.07;;;;;;;;;;5089524;28;20548;-62
2024/01/12 05:32:26;;;;;;;33.13;14.47;;;;;;;;;;5088982;28;20481;-61
2024/01/12 05:34:52;;;;;;;33.93;13.10;;;;;;;;;;5091732;28;20479;-61
2024/01/12 05:37:19;;;;;;;32.07;13.73;;;;;;;;;;5088020;28;20520;-64
2024/01/12 05:39:46;;;;;;;35.33;14.63;;;;;;;;;;5095562;28;20490;-62
2024/01/12 05:42:13;;;;;;;30.63;13.80;;;;;;;;;;5096795;28;20454;-63
2024/01/12 05:44:39;;;;;;;32.83;13.33;;;;;;;;;;5092224;28;20968;-63
2024/01/12 05:47:07;;;;;;;24.57;13.43;;;;;;;;;;5096254;28;20471;-64
2024/01/12 05:49:34;;;;;;;34.20;14.10;;;;;;;;;;5087684;28;20467;-63
2024/01/12 05:52:00;;;;;;;40.93;14.10;;;;;;;;;;5094729;28;20534;-64
2024/01/12 05:54:26;;;;;;;29.37;13.97;;;;;;;;;;5107954;28;20518;-62
2024/01/12 05:56:53;;;;;;;26.77;12.30;;;;;;;;;;5090076;28;20533;-63
2024/01/12 05:59:19;;;;;;;29.40;12.90;;;;;;;;;;5100071;28;20519;-63
2024/01/12 06:01:45;;;;;;;30.87;13.53;;;;;;;;;;5096655;28;20546;-62
2024/01/12 06:04:13;;;;;;;27.47;13.03;;;;;;;;;;5095607;28;20522;-63
2024/01/12 06:06:40;;;;;;;27.17;11.93;;;;;;;;;;5094123;28;20451;-61
2024/01/12 06:09:08;;;;;;;27.30;13.00;;;;;;;;;;5094347;28;20486;-64
2024/01/12 06:11:34;;;;;;;30.77;13.20;;;;;;;;;;5092919;28;21244;-62
2024/01/12 06:14:01;;;;;;;24.73;12.53;;;;;;;;;;5096525;28;20454;-64
2024/01/12 06:16:27;;;;;;;29.40;14.07;;;;;;;;;;5087009;28;20497;-62
2024/01/12 06:18:56;;;;;;;27.60;13.83;;;;;;;;;;5093120;28;20545;-63
2024/01/12 06:21:23;;;;;;;31.10;13.77;;;;;;;;;;5089947;28;20460;-61
2024/01/12 06:23:50;;;;;;;30.97;13.40;;;;;;;;;;5089042;28;21012;-65
2024/01/12 06:26:16;;;;;;;31.10;12.80;;;;;;;;;;5094527;28;20485;-65
2024/01/12 06:28:43;;;;;;;26.33;12.27;;;;;;;;;;5092732;28;21002;-65
2024/01/12 06:31:09;;;;;;;32.73;13.97;;;;;;;;;;5090561;28;21093;-65
2024/01/12 06:33:35;;;;;;;25.47;12.97;;;;;;;;;;5092357;28;20523;-66
2024/01/12 06:36:02;;;;;;;25.73;12.50;;;;;;;;;;5098101;28;20809;-66
2024/01/12 06:38:30;;;;;;;26.50;12.20;;;;;;;;;;5085726;28;20569;-65
2024/01/12 06:40:57;;;;;;;41.67;13.60;;;;;;;;;;5091715;28;20843;-66
2024/01/12 06:43:23;;;;;;;26.30;13.30;;;;;;;;;;5088154;28;20507;-66
2024/01/12 06:45:49;;;;;;;29.33;13.40;;;;;;;;;;5088170;28;20472;-66
2024/01/12 06:48:16;;;;;;;28.07;13.43;;;;;;;;;;5082521;28;21298;-66
2024/01/12 06:50:42;;;;;;;30.13;12.00;;;;;;;;;;5089964;28;20542;-65
2024/01/12 06:53:09;;;;;;;36.47;14.73;;;;;;;;;;5093237;28;20587;-65
2024/01/12 06:55:37;;;;;;;33.30;14.10;;;;;;;;;;5087992;28;20471;-65
2024/01/12 06:58:03;;;;;;;27.87;13.70;;;;;;;;;;5093176;28;20526;-65
2024/01/12 07:00:30;;;;;;;29.90;12.13;;;;;;;;;;5090503;28;20486;-65
2024/01/12 07:02:56;;;;;;;27.40;13.50;;;;;;;;;;5091980;28;20490;-65
2024/01/12 07:05:23;;;;;;;34.77;13.77;;;;;;;;;;5089456;28;20470;-65
2024/01/12 07:07:49;;;;;;;30.53;13.60;;;;;;;;;;5088034;28;21095;-65
2024/01/12 07:10:16;;;;;;;26.20;13.23;;;;;;;;;;5091546;28;20513;-65
2024/01/12 07:12:43;;;;;;;31.67;13.67;;;;;;;;;;5094043;28;20868;-65
2024/01/12 07:15:10;;;;;;;34.60;14.80;;;;;;;;;;5095385;28;20485;-65
2024/01/12 07:17:37;;;;;;;37.30;15.13;;;;;;;;;;5096796;28;20466;-68
2024/01/12 07:20:06;;;;;;;34.60;15.07;;;;;;;;;;5094951;28;20486;-68
2024/01/12 07:22:32;;;;;;;40.10;14.27;;;;;;;;;;5093896;28;20478;-68
2024/01/12 07:24:59;;;;;;;33.33;14.00;;;;;;;;;;5102488;28;20550;-68
2024/01/12 07:27:26;;;;;;;34.63;14.67;;;;;;;;;;5095151;28;20452;-67
2024/01/12 07:29:54;;;;;;;32.17;18.10;;;;;;;;;;5098874;28;20508;-67
2024/01/12 07:32:20;;;;;;;32.33;14.83;;;;;;;;;;5099321;28;20565;-68
2024/01/12 07:34:47;;;;;;;33.10;14.07;;;;;;;;;;5096388;28;20515;-65
2024/01/12 07:37:13;;;;;;;30.07;14.10;;;;;;;;;;5092553;28;20466;-68
2024/01/12 07:39:40;;;;;;;26.73;13.40;;;;;;;;;;5102331;28;20489;-68
2024/01/12 07:42:06;;;;;;;29.37;13.37;;;;;;;;;;5100149;28;21092;-66
2024/01/12 07:44:32;;;;;;;36.73;14.53;;;;;;;;;;5095794;28;20517;-66
2024/01/12 07:47:00;;;;;;;32.77;14.63;;;;;;;;;;5095235;28;20904;-67
2024/01/12 07:49:26;;;;;;;37.73;15.40;;;;;;;;;;5091444;28;20558;-67
2024/01/12 07:51:53;;;;;;;38.70;14.60;;;;;;;;;;5094600;28;21152;-68
2024/01/12 07:54:19;;;;;;;42.30;16.03;;;;;;;;;;5098953;28;21179;-67
2024/01/12 07:56:46;;;;;;;38.23;16.90;;;;;;;;;;5099911;28;20506;-68
2024/01/12 07:59:12;;;;;;;35.73;14.90;;;;;;;;;;5096825;28;20443;-69
2024/01/12 08:01:40;;;;;;;39.13;15.67;;;;;;;;;;5097184;28;20512;-68
2024/01/12 08:04:09;;;;;;;36.53;16.13;;;;;;;;;;5096188;28;20462;-69
2024/01/12 08:06:35;;;;;;;37.50;15.83;;;;;;;;;;5101895;28;20478;-67
2024/01/12 08:09:01;;;;;;;43.13;16.63;;;;;;;;;;5111299;28;20494;-68
2024/01/12 08:11:28;;;;;;;40.17;18.97;;;;;;;;;;5093327;28;20539;-69
2024/01/12 08:13:54;;;;;;;46.27;18.37;;;;;;;;;;5101486;28;20551;-68
2024/01/12 08:16:21;;;;;;;47.63;18.97;;;;;;;;;;5099217;28;20451;-67
2024/01/12 08:18:48;;;;;;;40.23;17.07;;;;;;;;;;5091010;28;20477;-67
2024/01/12 08:21:16;;;;;;;36.30;15.33;;;;;;;;;;5094749;28;20479;-68
2024/01/12 08:23:42;;;;;;;41.00;16.73;;;;;;;;;;5091860;28;20497;-67
2024/01/12 08:26:08;;;;;;;36.40;16.57;;;;;;;;;;5099007;28;20531;-67
2024/01/12 08:28:35;;;;;;;40.60;16.53;;;;;;;;;;5108337;28;20451;-66
2024/01/12 08:31:03;;;;;;;30.93;14.47;;;;;;;;;;5105784;28;20482;-69
2024/01/12 08:33:29;;;;;;;30.53;14.43;;;;;;;;;;5107739;28;20462;-68
2024/01/12 08:35:56;;;;;;;31.70;14.53;;;;;;;;;;5094353;28;20466;-69
2024/01/12 08:38:24;;;;;;;31.17;14.00;;;;;;;;;;5102597;28;20575;-68
2024/01/12 08:40:50;;;;;;;31.03;13.30;;;;;;;;;;5095265;28;20506;-67
2024/01/12 08:43:17;;;;;;;33.27;14.83;;;;;;;;;;5099707;28;20510;-69
2024/01/12 08:45:43;;;;;;;28.00;13.63;;;;;;;;;;5097054;28;20477;-71
2024/01/12 08:48:09;;;;;;;29.83;14.70;;;;;;;;;;5096253;28;20494;-69
2024/01/12 08:50:36;;;;;;;26.60;13.40;;;;;;;;;;5106381;28;20486;-69
2024/01/12 08:53:02;;;;;;;27.57;13.30;;;;;;;;;;5098069;28;21170;-68
2024/01/12 08:55:30;;;;;;;27.60;13.03;;;;;;;;;;5103570;28;20453;-68
2024/01/12 08:57:56;;;;;;;27.70;14.07;;;;;;;;;;5096660;28;20485;-68
2024/01/12 09:00:23;;;;;;;24.60;12.93;;;;;;;;;;5092354;28;20528;-67
2024/01/12 09:02:49;;;;;;;22.60;12.83;;;;;;;;;;5098418;28;20518;-69
2024/01/12 09:05:16;;;;;;;27.73;13.30;;;;;;;;;;5102017;28;20495;-68
2024/01/12 09:07:42;;;;;;;24.17;13.40;;;;;;;;;;5097352;28;20465;-66
2024/01/12 09:10:09;;;;;;;22.60;11.57;;;;;;;;;;5094292;28;21005;-65
2024/01/12 09:12:37;;;;;;;24.73;13.20;;;;;;;;;;5104331;28;20540;-68
2024/01/12 09:15:05;;;;;;;21.10;12.10;;;;;;;;;;5099397;28;20495;-67
2024/01/12 09:17:31;;;;;;;25.07;11.77;;;;;;;;;;5109553;28;20480;-66
2024/01/12 09:19:57;;;;;;;33.43;12.23;;;;;;;;;;5101146;28;20542;-67
2024/01/12 09:22:24;;;;;;;22.33;12.17;;;;;;;;;;5101617;28;20443;-65
2024/01/12 09:24:50;;;;;;;25.83;11.80;;;;;;;;;;5098326;28;20554;-67
2024/01/12 09:27:17;;;;;;;29.53;13.37;;;;;;;;;;5100334;28;20473;-66
2024/01/12 09:29:44;;;;;;;25.43;12.83;;;;;;;;;;5093991;28;20508;-66
2024/01/12 09:32:11;;;;;;;25.90;12.37;;;;;;;;;;5095458;28;21612;-67
2024/01/12 09:34:38;;;;;;;24.30;12.50;;;;;;;;;;5096047;28;20558;-66
2024/01/12 09:37:06;;;;;;;23.57;13.50;;;;;;;;;;5096215;28;20457;-68
2024/01/12 09:39:32;;;;;;;26.87;13.90;;;;;;;;;;5092072;28;20507;-66
2024/01/12 09:42:00;;;;;;;28.80;13.00;;;;;;;;;;5094571;28;20878;-69
2024/01/12 09:44:27;;;;;;;36.63;13.57;;;;;;;;;;5104337;28;20516;-68
2024/01/12 09:46:57;;;;;;;24.80;13.03;;;;;;;;;;5100084;28;20538;-68
2024/01/12 09:49:23;;;;;;;31.63;14.80;;;;;;;;;;5110371;28;20461;-65
2024/01/12 09:51:50;;;;;;;31.27;13.87;;;;;;;;;;5105499;28;20589;-68
2024/01/12 09:54:17;;;;;;;30.07;15.07;;;;;;;;;;5102093;28;20530;-66
2024/01/12 09:56:44;;;;;;;24.30;13.63;;;;;;;;;;5097302;28;20455;-67
2024/01/12 09:59:11;;;;;;;29.03;13.70;;;;;;;;;;5101263;28;20524;-66
2024/01/12 10:01:38;;;;;;;29.50;14.13;;;;;;;;;;5097627;28;20498;-68
2024/01/12 10:04:06;;;;;;;35.43;15.40;;;;;;;;;;5097380;28;20499;-66
2024/01/12 10:06:33;;;;;;;31.20;15.23;;;;;;;;;;5088489;28;21028;-67
2024/01/12 10:08:59;;;;;;;33.93;13.50;;;;;;;;;;5101612;28;20464;-67
2024/01/12 10:11:25;;;;;;;41.37;14.87;;;;;;;;;;5095730;28;20522;-69
2024/01/12 10:13:52;;;;;;;30.47;15.30;;;;;;;;;;5097372;28;20483;-68
2024/01/12 10:16:18;;;;;;;33.10;15.67;;;;;;;;;;5097669;28;20491;-68
2024/01/12 10:18:45;;;;;;;28.00;15.83;;;;;;;;;;5097509;28;20468;-67
2024/01/12 10:21:14;;;;;;;27.63;15.70;;;;;;;;;;5098417;28;20498;-69
2024/01/12 10:23:40;;;;;;;33.23;15.90;;;;;;;;;;5095561;28;20462;-67
2024/01/12 10:26:08;;;;;;;35.20;15.87;;;;;;;;;;5086565;28;20447;-67
2024/01/12 10:28:35;;;;;;;38.63;15.47;;;;;;;;;;5093018;28;20473;-69
2024/01/12 10:31:04;;;;;;;27.43;15.10;;;;;;;;;;5097969;28;20491;-69
2024/01/12 10:33:32;;;;;;;29.93;15.70;;;;;;;;;;5101410;28;20876;-68
2024/01/12 10:36:03;;;;;;;35.80;15.33;;;;;;;;;;5090840;28;20463;-67
2024/01/12 10:38:31;;;;;;;26.03;14.70;;;;;;;;;;5097939;28;20494;-66
2024/01/12 10:40:59;;;;;;;32.67;15.30;;;;;;;;;;5098211;28;20949;-68
2024/01/12 10:43:27;;;;;;;34.97;16.73;;;;;;;;;;5094919;28;20451;-69
2024/01/12 10:45:57;;;;;;;27.63;15.00;;;;;;;;;;5089322;28;20544;-69
2024/01/12 10:48:25;;;;;;;31.53;14.83;;;;;;;;;;5093982;28;20830;-69
2024/01/12 10:50:54;;;;;;;25.63;14.13;;;;;;;;;;5093896;28;21264;-68
2024/01/12 10:53:21;;;;;;;36.13;14.87;;;;;;;;;;5095645;28;20471;-69
2024/01/12 10:55:51;;;;;;;34.77;16.13;;;;;;;;;;5094049;28;20471;-67
2024/01/12 10:58:19;;;;;;;24.63;15.13;;;;;;;;;;5096594;28;20459;-66
2024/01/12 11:00:46;;;;;;;31.90;16.00;;;;;;;;;;5094270;28;20542;-66
2024/01/12 11:03:15;;;;;;;25.20;13.63;;;;;;;;;;5108172;28;20451;-67
2024/01/12 11:05:42;;;;;;;27.50;13.87;;;;;;;;;;5095996;28;20451;-68
2024/01/12 11:08:10;;;;;;;27.03;14.67;;;;;;;;;;5092387;28;20487;-67
2024/01/12 11:10:37;;;;;;;26.47;14.20;;;;;;;;;;5094661;28;20459;-66
2024/01/12 11:13:05;;;;;;;35.60;15.17;;;;;;;;;;5103631;28;20478;-68
2024/01/12 11:15:31;;;;;;;33.17;15.00;;;;;;;;;;5097756;28;20493;-68
2024/01/12 11:17:58;;;;;;;26.03;13.20;;;;;;;;;;5088048;28;20486;-67
2024/01/12 11:20:24;;;;;;;26.30;13.70;;;;;;;;;;5099469;28;20471;-66
2024/01/12 11:22:51;;;;;;;27.47;14.23;;;;;;;;;;5086859;28;20472;-66
2024/01/12 11:25:19;;;;;;;25.50;14.47;;;;;;;;;;5101171;28;20472;-65
2024/01/12 11:27:48;;;;;;;28.70;14.80;;;;;;;;;;5095432;28;20458;-72
2024/01/12 11:30:17;;;;;;;25.70;14.27;;;;;;;;;;5095747;28;20473;-71
2024/01/12 11:32:44;;;;;;;27.03;15.30;;;;;;;;;;5096790;28;20545;-71
2024/01/12 11:35:12;;;;;;;23.10;14.87;;;;;;;;;;5096426;28;20523;-71
2024/01/12 11:37:38;;;;;;;31.00;14.83;;;;;;;;;;5090673;28;20509;-71
2024/01/12 11:40:07;;;;;;;27.67;13.70;;;;;;;;;;5088754;28;20461;-71
2024/01/12 11:42:33;;;;;;;27.13;13.57;;;;;;;;;;5090705;28;20448;-71
2024/01/12 11:45:02;;;;;;;28.00;14.10;;;;;;;;;;5105810;28;20568;-71
2024/01/12 11:47:30;;;;;;;21.67;12.47;;;;;;;;;;5101591;28;20478;-71
2024/01/12 11:49:56;;;;;;;30.20;13.03;;;;;;;;;;5087955;28;20467;-71
2024/01/12 11:52:23;;;;;;;23.53;14.77;;;;;;;;;;5089535;28;20472;-71
2024/01/12 11:54:49;;;;;;;27.00;13.97;;;;;;;;;;5095093;28;20541;-71
2024/01/12 11:57:16;;;;;;;28.30;13.53;;;;;;;;;;5092826;28;20789;-71
2024/01/12 11:59:43;;;;;;;26.43;13.23;;;;;;;;;;5099263;28;20603;-71
2024/01/12 12:02:10;;;;;;;23.70;12.73;;;;;;;;;;5099271;28;21031;-71
2024/01/12 12:04:38;;;;;;;22.83;13.57;;;;;;;;;;5103780;28;20578;-71
2024/01/12 12:07:05;;;;;;;30.90;13.27;;;;;;;;;;5095708;28;20462;-71
2024/01/12 12:09:31;;;;;;;26.97;13.30;;;;;;;;;;5109895;28;20451;-71
2024/01/12 12:11:58;;;;;;;22.27;12.43;;;;;;;;;;5106547;28;21168;-71
2024/01/12 12:14:24;;;;;;;23.83;13.03;;;;;;;;;;5098495;28;20446;-71
2024/01/12 12:16:51;;;;;;;27.40;13.53;;;;;;;;;;5096029;28;20531;-71
2024/01/12 12:19:17;;;;;;;23.87;12.90;;;;;;;;;;5094059;28;20473;-71
2024/01/12 12:21:45;;;;;;;22.23;13.63;;;;;;;;;;5098421;28;20550;-71
2024/01/12 12:24:11;;;;;;;25.00;13.10;;;;;;;;;;5101279;28;20482;-71
2024/01/12 12:26:38;;;;;;;29.57;13.20;;;;;;;;;;5107679;28;20473;-71
2024/01/12 12:29:05;;;;;;;25.60;13.00;;;;;;;;;;5101645;28;20509;-71
2024/01/12 12:31:31;;;;;;;24.80;12.50;;;;;;;;;;5096893;28;20523;-71
2024/01/12 12:33:58;;;;;;;23.97;13.03;;;;;;;;;;5096031;28;20512;-71
2024/01/12 12:36:25;;;;;;;20.53;10.97;;;;;;;;;;5092923;28;20467;-71
2024/01/12 12:38:52;;;;;;;25.70;12.30;;;;;;;;;;5097289;28;20562;-71
2024/01/12 12:41:20;;;;;;;24.13;13.30;;;;;;;;;;5097817;28;20466;-71
2024/01/12 12:43:50;;;;;;;24.30;11.70;;;;;;;;;;5105875;28;20518;-71
2024/01/12 12:46:16;;;;;;;24.87;12.90;;;;;;;;;;5111795;28;20485;-71
2024/01/12 12:48:45;;;;;;;23.77;13.07;;;;;;;;;;5098877;28;20475;-71
2024/01/12 12:51:12;;;;;;;23.57;12.67;;;;;;;;;;5093744;28;20491;-71
2024/01/12 12:53:38;;;;;;;20.60;12.00;;;;;;;;;;5100354;28;20935;-71
2024/01/12 12:56:06;;;;;;;20.00;12.20;;;;;;;;;;5090640;28;20470;-68
2024/01/12 12:58:33;;;;;;;19.20;11.43;;;;;;;;;;5089235;28;20466;-67
2024/01/12 13:00:59;;;;;;;17.63;10.97;;;;;;;;;;5104568;28;20454;-66
2024/01/12 13:03:25;;;;;;;16.37;10.37;;;;;;;;;;5096247;28;20539;-66
2024/01/12 13:05:52;;;;;;;18.90;10.73;;;;;;;;;;5096293;28;20529;-68
2024/01/12 13:08:19;;;;;;;19.57;11.33;;;;;;;;;;5096821;28;20463;-67
2024/01/12 13:10:45;;;;;;;21.67;10.70;;;;;;;;;;5101468;28;20477;-68
2024/01/12 13:13:13;;;;;;;13.20;8.70;;;;;;;;;;5100652;28;20539;-67
2024/01/12 13:15:40;;;;;;;17.40;9.87;;;;;;;;;;5092662;28;20447;-66
2024/01/12 13:18:06;;;;;;;14.73;9.13;;;;;;;;;;5107097;28;20461;-68
2024/01/12 13:20:35;;;;;;;15.90;9.20;;;;;;;;;;5102078;28;20455;-67
2024/01/12 13:23:01;;;;;;;15.77;9.40;;;;;;;;;;5097653;28;20432;-69
2024/01/12 13:25:27;;;;;;;14.67;9.70;;;;;;;;;;5104485;28;20451;-67
2024/01/12 13:27:54;;;;;;;13.40;9.60;;;;;;;;;;5098566;28;20447;-68
2024/01/12 13:30:22;;;;;;;12.37;8.73;;;;;;;;;;5092311;28;20487;-69
2024/01/12 13:32:48;;;;;;;17.63;9.53;;;;;;;;;;5101088;28;20485;-67
2024/01/12 13:35:15;;;;;;;15.73;9.60;;;;;;;;;;5093074;28;20466;-68
2024/01/12 13:37:41;;;;;;;12.77;9.20;;;;;;;;;;5099447;28;20482;-68
2024/01/12 13:40:08;;;;;;;12.83;9.60;;;;;;;;;;5100494;28;21076;-67
2024/01/12 13:42:35;;;;;;;17.30;9.50;;;;;;;;;;5104658;28;20470;-70
2024/01/12 13:45:01;;;;;;;12.53;10.07;;;;;;;;;;5101967;28;20454;-69
2024/01/12 13:47:29;;;;;;;13.70;9.20;;;;;;;;;;5113523;28;20486;-68
2024/01/12 13:49:55;;;;;;;13.60;8.40;;;;;;;;;;5095929;28;20485;-67
2024/01/12 13:52:22;;;;;;;14.57;9.13;;;;;;;;;;5091457;28;20467;-69
2024/01/12 13:54:48;;;;;;;12.60;9.37;;;;;;;;;;5092949;28;20455;-69
2024/01/12 13:57:14;;;;;;;13.43;9.43;;;;;;;;;;5089344;28;20483;-68
2024/01/12 13:59:41;;;;;;;12.63;8.60;;;;;;;;;;5094356;28;20505;-69
2024/01/12 14:02:08;;;;;;;14.20;9.83;;;;;;;;;;5096410;28;20466;-66
2024/01/12 14:04:35;;;;;;;14.77;9.13;;;;;;;;;;5097758;28;20459;-68
2024/01/12 14:07:02;;;;;;;13.43;8.93;;;;;;;;;;5102532;28;20447;-63
2024/01/12 14:09:29;;;;;;;11.20;8.90;;;;;;;;;;5106561;28;20480;-72
2024/01/12 14:11:55;;;;;;;11.60;8.17;;;;;;;;;;5096989;28;20502;-69
2024/01/12 14:14:22;;;;;;;12.57;8.60;;;;;;;;;;5097014;28;20518;-66
2024/01/12 14:16:48;;;;;;;16.13;8.97;;;;;;;;;;5101473;28;20485;-69